sensor_id;sensor_type;location;lat;lon;timestamp;P1;durP1;ratioP1;P2;durP2;ratioP2
24650;SDS011;12783;48.824;8.662;2023-04-24T00:01:58;1.25;;;0.60;;
24650;SDS011;12783;48.824;8.662;2023-04-24T00:04:25;2.58;;;0.70;;
24650;SDS011;12783;48.824;8.662;2023-04-24T00:06:53;1.35;;;0.60;;
24650;SDS011;12783;48.824;8.662;2023-04-24T00:09:23;2.03;;;0.85;;
24650;SDS011;12783;48.824;8.662;2023-04-24T00:11:50;1.58;;;0.70;;
24650;SDS011;12783;48.824;8.662;2023-04-24T00:14:18;1.48;;;0.60;;
24650;SDS011;12783;48.824;8.662;2023-04-24T00:16:45;3.00;;;0.77;;
24650;SDS011;12783;48.824;8.662;2023-04-24T00:19:12;2.67;;;0.63;;
24650;SDS011;12783;48.824;8.662;2023-04-24T00:21:39;3.80;;;1.10;;
24650;SDS011;12783;48.824;8.662;2023-04-24T00:24:07;1.58;;;0.70;;
24650;SDS011;12783;48.824;8.662;2023-04-24T00:26:35;3.78;;;0.70;;
24650;SDS011;12783;48.824;8.662;2023-04-24T00:29:02;2.42;;;0.50;;
24650;SDS011;12783;48.824;8.662;2023-04-24T00:31:29;1.27;;;0.65;;
24650;SDS011;12783;48.824;8.662;2023-04-24T00:33:56;1.50;;;0.60;;
24650;SDS011;12783;48.824;8.662;2023-04-24T00:36:23;2.42;;;0.70;;
24650;SDS011;12783;48.824;8.662;2023-04-24T00:38:51;0.55;;;0.30;;
24650;SDS011;12783;48.824;8.662;2023-04-24T00:41:18;3.35;;;0.50;;
24650;SDS011;12783;48.824;8.662;2023-04-24T00:43:45;1.98;;;0.60;;
24650;SDS011;12783;48.824;8.662;2023-04-24T00:46:12;4.22;;;0.75;;
24650;SDS011;12783;48.824;8.662;2023-04-24T00:48:40;0.85;;;0.43;;
24650;SDS011;12783;48.824;8.662;2023-04-24T00:51:06;2.25;;;0.82;;
24650;SDS011;12783;48.824;8.662;2023-04-24T00:53:34;2.15;;;0.68;;
24650;SDS011;12783;48.824;8.662;2023-04-24T00:56:01;1.35;;;0.50;;
24650;SDS011;12783;48.824;8.662;2023-04-24T00:58:29;1.50;;;0.75;;
24650;SDS011;12783;48.824;8.662;2023-04-24T01:00:57;2.22;;;0.50;;
24650;SDS011;12783;48.824;8.662;2023-04-24T01:03:28;2.50;;;0.80;;
24650;SDS011;12783;48.824;8.662;2023-04-24T01:05:58;0.57;;;0.50;;
24650;SDS011;12783;48.824;8.662;2023-04-24T01:08:26;1.20;;;0.55;;
24650;SDS011;12783;48.824;8.662;2023-04-24T01:10:54;2.28;;;0.70;;
24650;SDS011;12783;48.824;8.662;2023-04-24T01:13:23;2.22;;;0.50;;
24650;SDS011;12783;48.824;8.662;2023-04-24T01:15:50;2.50;;;0.60;;
24650;SDS011;12783;48.824;8.662;2023-04-24T01:18:17;0.77;;;0.70;;
24650;SDS011;12783;48.824;8.662;2023-04-24T01:20:44;1.92;;;0.70;;
24650;SDS011;12783;48.824;8.662;2023-04-24T01:23:12;2.38;;;0.60;;
24650;SDS011;12783;48.824;8.662;2023-04-24T01:25:40;2.25;;;0.80;;
24650;SDS011;12783;48.824;8.662;2023-04-24T01:28:07;1.52;;;0.60;;
24650;SDS011;12783;48.824;8.662;2023-04-24T01:30:34;2.70;;;0.70;;
24650;SDS011;12783;48.824;8.662;2023-04-24T01:33:00;2.47;;;0.70;;
24650;SDS011;12783;48.824;8.662;2023-04-24T01:35:28;1.00;;;0.75;;
24650;SDS011;12783;48.824;8.662;2023-04-24T01:37:55;2.67;;;0.75;;
24650;SDS011;12783;48.824;8.662;2023-04-24T01:40:22;1.40;;;0.50;;
24650;SDS011;12783;48.824;8.662;2023-04-24T01:42:49;1.95;;;0.77;;
24650;SDS011;12783;48.824;8.662;2023-04-24T01:45:17;3.28;;;0.50;;
24650;SDS011;12783;48.824;8.662;2023-04-24T01:47:44;3.75;;;0.73;;
24650;SDS011;12783;48.824;8.662;2023-04-24T01:50:12;3.50;;;0.70;;
24650;SDS011;12783;48.824;8.662;2023-04-24T01:52:39;1.05;;;0.80;;
24650;SDS011;12783;48.824;8.662;2023-04-24T01:55:06;1.35;;;0.75;;
24650;SDS011;12783;48.824;8.662;2023-04-24T01:57:34;4.05;;;0.70;;
24650;SDS011;12783;48.824;8.662;2023-04-24T02:00:02;1.02;;;0.47;;
24650;SDS011;12783;48.824;8.662;2023-04-24T02:02:30;1.58;;;0.45;;
24650;SDS011;12783;48.824;8.662;2023-04-24T02:04:58;3.70;;;0.68;;
24650;SDS011;12783;48.824;8.662;2023-04-24T02:07:25;2.85;;;0.60;;
24650;SDS011;12783;48.824;8.662;2023-04-24T02:09:52;2.78;;;0.65;;
24650;SDS011;12783;48.824;8.662;2023-04-24T02:12:18;1.38;;;0.75;;
24650;SDS011;12783;48.824;8.662;2023-04-24T02:14:45;1.38;;;0.55;;
24650;SDS011;12783;48.824;8.662;2023-04-24T02:17:12;2.17;;;0.85;;
24650;SDS011;12783;48.824;8.662;2023-04-24T02:19:41;3.58;;;1.13;;
24650;SDS011;12783;48.824;8.662;2023-04-24T02:22:09;2.72;;;0.80;;
24650;SDS011;12783;48.824;8.662;2023-04-24T02:24:36;1.30;;;0.73;;
24650;SDS011;12783;48.824;8.662;2023-04-24T02:27:04;0.60;;;0.57;;
24650;SDS011;12783;48.824;8.662;2023-04-24T02:29:32;1.48;;;0.50;;
24650;SDS011;12783;48.824;8.662;2023-04-24T02:31:59;2.25;;;0.70;;
24650;SDS011;12783;48.824;8.662;2023-04-24T02:34:26;5.47;;;0.70;;
24650;SDS011;12783;48.824;8.662;2023-04-24T02:36:53;1.05;;;0.85;;
24650;SDS011;12783;48.824;8.662;2023-04-24T02:39:20;1.00;;;0.73;;
24650;SDS011;12783;48.824;8.662;2023-04-24T02:41:47;1.92;;;0.60;;
24650;SDS011;12783;48.824;8.662;2023-04-24T02:44:14;2.05;;;0.55;;
24650;SDS011;12783;48.824;8.662;2023-04-24T02:46:41;3.83;;;0.70;;
24650;SDS011;12783;48.824;8.662;2023-04-24T02:49:08;0.60;;;0.47;;
24650;SDS011;12783;48.824;8.662;2023-04-24T02:51:35;1.15;;;0.50;;
24650;SDS011;12783;48.824;8.662;2023-04-24T02:54:04;1.58;;;0.60;;
24650;SDS011;12783;48.824;8.662;2023-04-24T02:56:31;1.48;;;0.50;;
24650;SDS011;12783;48.824;8.662;2023-04-24T02:58:58;2.40;;;0.60;;
24650;SDS011;12783;48.824;8.662;2023-04-24T03:01:24;4.25;;;0.90;;
24650;SDS011;12783;48.824;8.662;2023-04-24T03:03:52;1.08;;;0.63;;
24650;SDS011;12783;48.824;8.662;2023-04-24T03:06:19;1.77;;;1.10;;
24650;SDS011;12783;48.824;8.662;2023-04-24T03:08:47;2.42;;;0.65;;
24650;SDS011;12783;48.824;8.662;2023-04-24T03:11:13;2.10;;;0.68;;
24650;SDS011;12783;48.824;8.662;2023-04-24T03:13:40;2.67;;;0.60;;
24650;SDS011;12783;48.824;8.662;2023-04-24T03:16:07;1.13;;;0.52;;
24650;SDS011;12783;48.824;8.662;2023-04-24T03:18:34;2.40;;;0.50;;
24650;SDS011;12783;48.824;8.662;2023-04-24T03:21:01;2.08;;;0.70;;
24650;SDS011;12783;48.824;8.662;2023-04-24T03:23:29;0.93;;;0.70;;
24650;SDS011;12783;48.824;8.662;2023-04-24T03:25:56;1.52;;;0.60;;
24650;SDS011;12783;48.824;8.662;2023-04-24T03:28:23;1.90;;;0.70;;
24650;SDS011;12783;48.824;8.662;2023-04-24T03:30:51;1.42;;;0.70;;
24650;SDS011;12783;48.824;8.662;2023-04-24T03:33:18;0.57;;;0.45;;
24650;SDS011;12783;48.824;8.662;2023-04-24T03:35:45;4.50;;;0.75;;
24650;SDS011;12783;48.824;8.662;2023-04-24T03:38:12;1.05;;;0.70;;
24650;SDS011;12783;48.824;8.662;2023-04-24T03:40:38;1.58;;;1.00;;
24650;SDS011;12783;48.824;8.662;2023-04-24T03:43:05;2.58;;;0.95;;
24650;SDS011;12783;48.824;8.662;2023-04-24T03:45:32;1.33;;;1.00;;
24650;SDS011;12783;48.824;8.662;2023-04-24T03:47:59;2.40;;;1.38;;
24650;SDS011;12783;48.824;8.662;2023-04-24T03:50:26;1.73;;;1.40;;
24650;SDS011;12783;48.824;8.662;2023-04-24T03:52:53;1.80;;;1.42;;
24650;SDS011;12783;48.824;8.662;2023-04-24T03:55:20;1.55;;;1.45;;
24650;SDS011;12783;48.824;8.662;2023-04-24T03:57:46;2.67;;;1.40;;
24650;SDS011;12783;48.824;8.662;2023-04-24T04:00:13;1.55;;;1.42;;
24650;SDS011;12783;48.824;8.662;2023-04-24T04:02:41;3.78;;;1.67;;
24650;SDS011;12783;48.824;8.662;2023-04-24T04:05:08;4.78;;;1.30;;
24650;SDS011;12783;48.824;8.662;2023-04-24T04:07:35;5.72;;;1.75;;
24650;SDS011;12783;48.824;8.662;2023-04-24T04:10:02;3.13;;;1.90;;
24650;SDS011;12783;48.824;8.662;2023-04-24T04:12:30;5.30;;;2.15;;
24650;SDS011;12783;48.824;8.662;2023-04-24T04:14:56;4.63;;;2.33;;
24650;SDS011;12783;48.824;8.662;2023-04-24T04:17:23;2.35;;;2.10;;
24650;SDS011;12783;48.824;8.662;2023-04-24T04:19:50;2.92;;;2.15;;
24650;SDS011;12783;48.824;8.662;2023-04-24T04:22:17;4.10;;;2.30;;
24650;SDS011;12783;48.824;8.662;2023-04-24T04:24:44;4.03;;;2.20;;
24650;SDS011;12783;48.824;8.662;2023-04-24T04:27:12;3.97;;;2.60;;
24650;SDS011;12783;48.824;8.662;2023-04-24T04:29:39;3.63;;;2.60;;
24650;SDS011;12783;48.824;8.662;2023-04-24T04:32:06;3.10;;;2.50;;
24650;SDS011;12783;48.824;8.662;2023-04-24T04:34:33;7.22;;;3.65;;
24650;SDS011;12783;48.824;8.662;2023-04-24T04:37:00;7.10;;;3.35;;
24650;SDS011;12783;48.824;8.662;2023-04-24T04:39:28;6.43;;;3.55;;
24650;SDS011;12783;48.824;8.662;2023-04-24T04:41:56;7.68;;;3.42;;
24650;SDS011;12783;48.824;8.662;2023-04-24T04:44:23;4.53;;;3.15;;
24650;SDS011;12783;48.824;8.662;2023-04-24T04:46:49;6.60;;;3.35;;
24650;SDS011;12783;48.824;8.662;2023-04-24T04:49:19;4.90;;;3.13;;
24650;SDS011;12783;48.824;8.662;2023-04-24T04:51:47;4.55;;;3.15;;
24650;SDS011;12783;48.824;8.662;2023-04-24T04:54:14;4.60;;;3.45;;
24650;SDS011;12783;48.824;8.662;2023-04-24T04:56:42;7.55;;;3.97;;
24650;SDS011;12783;48.824;8.662;2023-04-24T04:59:08;4.63;;;3.30;;
24650;SDS011;12783;48.824;8.662;2023-04-24T05:01:35;5.38;;;3.50;;
24650;SDS011;12783;48.824;8.662;2023-04-24T05:04:03;6.35;;;3.67;;
24650;SDS011;12783;48.824;8.662;2023-04-24T05:06:30;5.82;;;3.83;;
24650;SDS011;12783;48.824;8.662;2023-04-24T05:08:57;4.30;;;3.40;;
24650;SDS011;12783;48.824;8.662;2023-04-24T05:11:23;5.07;;;3.58;;
24650;SDS011;12783;48.824;8.662;2023-04-24T05:13:50;9.82;;;3.75;;
24650;SDS011;12783;48.824;8.662;2023-04-24T05:16:17;6.18;;;3.83;;
24650;SDS011;12783;48.824;8.662;2023-04-24T05:18:44;4.93;;;3.53;;
24650;SDS011;12783;48.824;8.662;2023-04-24T05:21:11;6.68;;;3.97;;
24650;SDS011;12783;48.824;8.662;2023-04-24T05:23:38;4.07;;;3.30;;
24650;SDS011;12783;48.824;8.662;2023-04-24T05:26:05;8.30;;;3.45;;
24650;SDS011;12783;48.824;8.662;2023-04-24T05:28:33;5.25;;;3.28;;
24650;SDS011;12783;48.824;8.662;2023-04-24T05:31:02;8.23;;;3.45;;
24650;SDS011;12783;48.824;8.662;2023-04-24T05:33:29;5.13;;;3.40;;
24650;SDS011;12783;48.824;8.662;2023-04-24T05:35:56;7.13;;;2.95;;
24650;SDS011;12783;48.824;8.662;2023-04-24T05:38:23;4.43;;;3.45;;
24650;SDS011;12783;48.824;8.662;2023-04-24T05:40:50;5.05;;;3.30;;
24650;SDS011;12783;48.824;8.662;2023-04-24T05:43:17;4.20;;;3.13;;
24650;SDS011;12783;48.824;8.662;2023-04-24T05:45:44;5.22;;;3.08;;
24650;SDS011;12783;48.824;8.662;2023-04-24T05:48:11;6.65;;;3.20;;
24650;SDS011;12783;48.824;8.662;2023-04-24T05:50:38;3.80;;;2.95;;
24650;SDS011;12783;48.824;8.662;2023-04-24T05:53:05;4.38;;;3.05;;
24650;SDS011;12783;48.824;8.662;2023-04-24T05:55:33;4.50;;;3.50;;
24650;SDS011;12783;48.824;8.662;2023-04-24T05:58:00;4.35;;;2.97;;
24650;SDS011;12783;48.824;8.662;2023-04-24T06:00:27;6.07;;;3.47;;
24650;SDS011;12783;48.824;8.662;2023-04-24T06:02:55;3.97;;;2.95;;
24650;SDS011;12783;48.824;8.662;2023-04-24T06:05:22;6.32;;;3.17;;
24650;SDS011;12783;48.824;8.662;2023-04-24T06:07:49;5.82;;;3.20;;
24650;SDS011;12783;48.824;8.662;2023-04-24T06:10:16;3.65;;;3.00;;
24650;SDS011;12783;48.824;8.662;2023-04-24T06:12:43;4.53;;;3.20;;
24650;SDS011;12783;48.824;8.662;2023-04-24T06:15:11;6.78;;;3.05;;
24650;SDS011;12783;48.824;8.662;2023-04-24T06:17:37;4.78;;;2.80;;
24650;SDS011;12783;48.824;8.662;2023-04-24T06:20:05;4.28;;;3.00;;
24650;SDS011;12783;48.824;8.662;2023-04-24T06:22:34;5.57;;;3.40;;
24650;SDS011;12783;48.824;8.662;2023-04-24T06:25:01;3.92;;;3.22;;
24650;SDS011;12783;48.824;8.662;2023-04-24T06:27:28;5.72;;;2.92;;
24650;SDS011;12783;48.824;8.662;2023-04-24T06:29:55;4.28;;;2.90;;
24650;SDS011;12783;48.824;8.662;2023-04-24T06:32:22;4.55;;;3.10;;
24650;SDS011;12783;48.824;8.662;2023-04-24T06:34:51;3.35;;;2.65;;
24650;SDS011;12783;48.824;8.662;2023-04-24T06:37:19;3.15;;;2.60;;
24650;SDS011;12783;48.824;8.662;2023-04-24T06:39:47;4.70;;;2.53;;
24650;SDS011;12783;48.824;8.662;2023-04-24T06:42:14;3.72;;;2.90;;
24650;SDS011;12783;48.824;8.662;2023-04-24T06:44:41;16.08;;;7.78;;
24650;SDS011;12783;48.824;8.662;2023-04-24T06:47:09;6.50;;;2.78;;
24650;SDS011;12783;48.824;8.662;2023-04-24T06:49:36;4.47;;;2.85;;
24650;SDS011;12783;48.824;8.662;2023-04-24T06:52:04;4.10;;;2.70;;
24650;SDS011;12783;48.824;8.662;2023-04-24T06:54:32;4.60;;;2.60;;
24650;SDS011;12783;48.824;8.662;2023-04-24T06:56:59;5.18;;;2.63;;
24650;SDS011;12783;48.824;8.662;2023-04-24T06:59:29;3.63;;;2.22;;
24650;SDS011;12783;48.824;8.662;2023-04-24T07:01:56;5.75;;;2.42;;
24650;SDS011;12783;48.824;8.662;2023-04-24T07:04:24;4.57;;;2.40;;
24650;SDS011;12783;48.824;8.662;2023-04-24T07:06:51;6.43;;;2.85;;
24650;SDS011;12783;48.824;8.662;2023-04-24T07:09:22;4.20;;;2.10;;
24650;SDS011;12783;48.824;8.662;2023-04-24T07:11:53;5.00;;;2.17;;
24650;SDS011;12783;48.824;8.662;2023-04-24T07:14:20;3.55;;;2.13;;
24650;SDS011;12783;48.824;8.662;2023-04-24T07:16:47;4.25;;;2.10;;
24650;SDS011;12783;48.824;8.662;2023-04-24T07:19:14;2.90;;;2.15;;
24650;SDS011;12783;48.824;8.662;2023-04-24T07:21:41;4.97;;;2.30;;
24650;SDS011;12783;48.824;8.662;2023-04-24T07:24:08;3.42;;;2.00;;
24650;SDS011;12783;48.824;8.662;2023-04-24T07:26:37;4.85;;;2.40;;
24650;SDS011;12783;48.824;8.662;2023-04-24T07:29:07;4.93;;;2.33;;
24650;SDS011;12783;48.824;8.662;2023-04-24T07:31:34;3.33;;;2.13;;
24650;SDS011;12783;48.824;8.662;2023-04-24T07:34:01;5.07;;;2.50;;
24650;SDS011;12783;48.824;8.662;2023-04-24T07:36:28;6.47;;;2.35;;
24650;SDS011;12783;48.824;8.662;2023-04-24T07:38:55;4.20;;;2.78;;
24650;SDS011;12783;48.824;8.662;2023-04-24T07:41:24;6.75;;;2.40;;
24650;SDS011;12783;48.824;8.662;2023-04-24T07:43:51;3.10;;;2.63;;
24650;SDS011;12783;48.824;8.662;2023-04-24T07:46:20;3.63;;;2.47;;
24650;SDS011;12783;48.824;8.662;2023-04-24T07:48:47;4.97;;;2.50;;
24650;SDS011;12783;48.824;8.662;2023-04-24T07:51:27;4.75;;;2.20;;
24650;SDS011;12783;48.824;8.662;2023-04-24T07:53:54;3.22;;;2.05;;
24650;SDS011;12783;48.824;8.662;2023-04-24T07:56:21;5.53;;;2.28;;
24650;SDS011;12783;48.824;8.662;2023-04-24T07:58:48;3.47;;;2.15;;
24650;SDS011;12783;48.824;8.662;2023-04-24T08:01:15;3.17;;;1.90;;
24650;SDS011;12783;48.824;8.662;2023-04-24T08:03:42;2.78;;;1.90;;
24650;SDS011;12783;48.824;8.662;2023-04-24T08:06:09;3.05;;;1.80;;
24650;SDS011;12783;48.824;8.662;2023-04-24T08:08:36;3.97;;;1.95;;
24650;SDS011;12783;48.824;8.662;2023-04-24T08:11:03;2.08;;;1.58;;
24650;SDS011;12783;48.824;8.662;2023-04-24T08:13:30;4.32;;;1.88;;
24650;SDS011;12783;48.824;8.662;2023-04-24T08:15:57;4.05;;;1.92;;
24650;SDS011;12783;48.824;8.662;2023-04-24T08:18:24;2.45;;;1.50;;
24650;SDS011;12783;48.824;8.662;2023-04-24T08:20:51;3.65;;;1.60;;
24650;SDS011;12783;48.824;8.662;2023-04-24T08:23:18;3.30;;;1.60;;
24650;SDS011;12783;48.824;8.662;2023-04-24T08:25:44;3.38;;;1.70;;
24650;SDS011;12783;48.824;8.662;2023-04-24T08:28:11;3.15;;;1.70;;
24650;SDS011;12783;48.824;8.662;2023-04-24T08:30:42;2.17;;;1.45;;
24650;SDS011;12783;48.824;8.662;2023-04-24T08:33:09;2.60;;;1.50;;
24650;SDS011;12783;48.824;8.662;2023-04-24T08:35:36;3.88;;;1.33;;
24650;SDS011;12783;48.824;8.662;2023-04-24T08:38:03;1.80;;;1.40;;
24650;SDS011;12783;48.824;8.662;2023-04-24T08:40:30;2.95;;;1.30;;
24650;SDS011;12783;48.824;8.662;2023-04-24T08:43:01;1.95;;;1.30;;
24650;SDS011;12783;48.824;8.662;2023-04-24T08:45:29;2.20;;;1.35;;
24650;SDS011;12783;48.824;8.662;2023-04-24T08:47:56;1.70;;;1.10;;
24650;SDS011;12783;48.824;8.662;2023-04-24T08:50:24;2.88;;;1.40;;
24650;SDS011;12783;48.824;8.662;2023-04-24T08:52:52;2.42;;;1.27;;
24650;SDS011;12783;48.824;8.662;2023-04-24T08:55:19;1.70;;;1.58;;
24650;SDS011;12783;48.824;8.662;2023-04-24T08:57:51;3.55;;;1.60;;
24650;SDS011;12783;48.824;8.662;2023-04-24T09:00:20;4.82;;;1.70;;
24650;SDS011;12783;48.824;8.662;2023-04-24T09:02:48;2.78;;;1.75;;
24650;SDS011;12783;48.824;8.662;2023-04-24T09:05:17;2.17;;;1.80;;
24650;SDS011;12783;48.824;8.662;2023-04-24T09:07:49;1.88;;;1.67;;
24650;SDS011;12783;48.824;8.662;2023-04-24T09:10:24;4.95;;;1.85;;
24650;SDS011;12783;48.824;8.662;2023-04-24T09:12:52;2.20;;;1.90;;
24650;SDS011;12783;48.824;8.662;2023-04-24T09:15:20;2.88;;;2.00;;
24650;SDS011;12783;48.824;8.662;2023-04-24T09:17:47;3.50;;;1.55;;
24650;SDS011;12783;48.824;8.662;2023-04-24T09:20:14;3.03;;;1.50;;
24650;SDS011;12783;48.824;8.662;2023-04-24T09:22:42;2.28;;;1.70;;
24650;SDS011;12783;48.824;8.662;2023-04-24T09:25:09;2.03;;;1.58;;
24650;SDS011;12783;48.824;8.662;2023-04-24T09:27:42;6.20;;;2.00;;
24650;SDS011;12783;48.824;8.662;2023-04-24T09:30:11;4.22;;;1.55;;
24650;SDS011;12783;48.824;8.662;2023-04-24T09:32:38;2.92;;;1.95;;
24650;SDS011;12783;48.824;8.662;2023-04-24T09:35:11;3.97;;;1.80;;
24650;SDS011;12783;48.824;8.662;2023-04-24T09:37:42;3.15;;;1.83;;
24650;SDS011;12783;48.824;8.662;2023-04-24T09:40:21;3.92;;;1.83;;
24650;SDS011;12783;48.824;8.662;2023-04-24T09:42:53;2.47;;;1.58;;
24650;SDS011;12783;48.824;8.662;2023-04-24T09:45:37;4.03;;;1.70;;
24650;SDS011;12783;48.824;8.662;2023-04-24T09:48:08;2.33;;;1.58;;
24650;SDS011;12783;48.824;8.662;2023-04-24T09:50:37;2.65;;;1.65;;
24650;SDS011;12783;48.824;8.662;2023-04-24T09:53:04;2.67;;;1.58;;
24650;SDS011;12783;48.824;8.662;2023-04-24T09:55:42;3.00;;;1.50;;
24650;SDS011;12783;48.824;8.662;2023-04-24T09:58:12;3.40;;;1.80;;
24650;SDS011;12783;48.824;8.662;2023-04-24T10:00:39;1.88;;;1.50;;
24650;SDS011;12783;48.824;8.662;2023-04-24T10:03:06;2.28;;;1.77;;
24650;SDS011;12783;48.824;8.662;2023-04-24T10:05:35;2.17;;;1.50;;
24650;SDS011;12783;48.824;8.662;2023-04-24T10:08:05;4.05;;;1.80;;
24650;SDS011;12783;48.824;8.662;2023-04-24T10:10:40;2.20;;;1.63;;
24650;SDS011;12783;48.824;8.662;2023-04-24T10:15:40;2.10;;;1.48;;
24650;SDS011;12783;48.824;8.662;2023-04-24T10:18:09;3.05;;;1.42;;
24650;SDS011;12783;48.824;8.662;2023-04-24T10:20:38;6.78;;;1.60;;
24650;SDS011;12783;48.824;8.662;2023-04-24T10:23:06;1.85;;;1.67;;
24650;SDS011;12783;48.824;8.662;2023-04-24T10:25:34;2.10;;;1.40;;
24650;SDS011;12783;48.824;8.662;2023-04-24T10:28:05;2.53;;;1.50;;
24650;SDS011;12783;48.824;8.662;2023-04-24T10:30:36;3.67;;;1.38;;
24650;SDS011;12783;48.824;8.662;2023-04-24T10:33:04;6.03;;;1.83;;
24650;SDS011;12783;48.824;8.662;2023-04-24T10:35:35;6.03;;;1.60;;
24650;SDS011;12783;48.824;8.662;2023-04-24T10:38:08;2.72;;;1.70;;
24650;SDS011;12783;48.824;8.662;2023-04-24T10:40:39;3.53;;;1.90;;
24650;SDS011;12783;48.824;8.662;2023-04-24T10:43:07;3.38;;;1.60;;
24650;SDS011;12783;48.824;8.662;2023-04-24T10:45:37;7.40;;;2.00;;
24650;SDS011;12783;48.824;8.662;2023-04-24T10:48:06;3.40;;;1.83;;
24650;SDS011;12783;48.824;8.662;2023-04-24T10:53:20;2.38;;;1.75;;
24650;SDS011;12783;48.824;8.662;2023-04-24T10:56:05;5.13;;;1.80;;
24650;SDS011;12783;48.824;8.662;2023-04-24T10:58:42;1.58;;;1.40;;
24650;SDS011;12783;48.824;8.662;2023-04-24T11:04:02;3.05;;;1.92;;
24650;SDS011;12783;48.824;8.662;2023-04-24T11:06:31;3.53;;;2.25;;
24650;SDS011;12783;48.824;8.662;2023-04-24T11:09:10;2.20;;;1.88;;
24650;SDS011;12783;48.824;8.662;2023-04-24T11:11:45;2.65;;;2.22;;
24650;SDS011;12783;48.824;8.662;2023-04-24T11:14:16;7.97;;;2.40;;
24650;SDS011;12783;48.824;8.662;2023-04-24T11:19:18;5.93;;;2.40;;
24650;SDS011;12783;48.824;8.662;2023-04-24T11:21:55;3.83;;;2.72;;
24650;SDS011;12783;48.824;8.662;2023-04-24T11:27:18;3.25;;;2.47;;
24650;SDS011;12783;48.824;8.662;2023-04-24T11:29:48;4.10;;;2.13;;
24650;SDS011;12783;48.824;8.662;2023-04-24T11:32:27;3.92;;;2.15;;
24650;SDS011;12783;48.824;8.662;2023-04-24T11:37:52;5.68;;;2.90;;
24650;SDS011;12783;48.824;8.662;2023-04-24T11:40:23;4.45;;;2.03;;
24650;SDS011;12783;48.824;8.662;2023-04-24T11:42:52;2.63;;;1.92;;
24650;SDS011;12783;48.824;8.662;2023-04-24T11:45:23;2.83;;;1.88;;
24650;SDS011;12783;48.824;8.662;2023-04-24T11:47:56;2.90;;;1.85;;
24650;SDS011;12783;48.824;8.662;2023-04-24T11:50:25;2.97;;;1.60;;
24650;SDS011;12783;48.824;8.662;2023-04-24T11:52:55;4.95;;;1.85;;
24650;SDS011;12783;48.824;8.662;2023-04-24T11:55:23;3.10;;;1.98;;
24650;SDS011;12783;48.824;8.662;2023-04-24T11:57:54;4.80;;;1.60;;
24650;SDS011;12783;48.824;8.662;2023-04-24T12:00:33;3.03;;;2.00;;
24650;SDS011;12783;48.824;8.662;2023-04-24T12:03:04;4.35;;;2.33;;
24650;SDS011;12783;48.824;8.662;2023-04-24T12:05:37;2.63;;;1.80;;
24650;SDS011;12783;48.824;8.662;2023-04-24T12:08:05;2.28;;;1.88;;
24650;SDS011;12783;48.824;8.662;2023-04-24T12:10:33;3.55;;;1.90;;
24650;SDS011;12783;48.824;8.662;2023-04-24T12:13:01;2.35;;;1.95;;
24650;SDS011;12783;48.824;8.662;2023-04-24T12:15:28;3.40;;;2.33;;
24650;SDS011;12783;48.824;8.662;2023-04-24T12:17:56;3.05;;;2.35;;
24650;SDS011;12783;48.824;8.662;2023-04-24T12:20:24;7.97;;;2.60;;
24650;SDS011;12783;48.824;8.662;2023-04-24T12:22:58;2.75;;;2.30;;
24650;SDS011;12783;48.824;8.662;2023-04-24T12:30:38;4.75;;;2.70;;
24650;SDS011;12783;48.824;8.662;2023-04-24T12:33:18;4.57;;;2.58;;
24650;SDS011;12783;48.824;8.662;2023-04-24T12:35:47;5.57;;;3.00;;
24650;SDS011;12783;48.824;8.662;2023-04-24T12:38:23;3.92;;;3.20;;
24650;SDS011;12783;48.824;8.662;2023-04-24T12:41:05;5.05;;;3.00;;
24650;SDS011;12783;48.824;8.662;2023-04-24T12:43:34;4.97;;;3.50;;
24650;SDS011;12783;48.824;8.662;2023-04-24T12:46:01;5.10;;;3.28;;
24650;SDS011;12783;48.824;8.662;2023-04-24T12:48:29;4.30;;;3.05;;
24650;SDS011;12783;48.824;8.662;2023-04-24T12:50:57;6.05;;;3.35;;
24650;SDS011;12783;48.824;8.662;2023-04-24T12:53:27;5.05;;;3.05;;
24650;SDS011;12783;48.824;8.662;2023-04-24T12:55:56;4.75;;;3.30;;
24650;SDS011;12783;48.824;8.662;2023-04-24T12:58:23;7.22;;;2.83;;
24650;SDS011;12783;48.824;8.662;2023-04-24T13:00:50;5.78;;;3.15;;
24650;SDS011;12783;48.824;8.662;2023-04-24T13:03:17;6.32;;;2.85;;
24650;SDS011;12783;48.824;8.662;2023-04-24T13:05:46;4.57;;;2.83;;
24650;SDS011;12783;48.824;8.662;2023-04-24T13:08:13;3.58;;;2.47;;
24650;SDS011;12783;48.824;8.662;2023-04-24T13:10:40;4.15;;;2.90;;
24650;SDS011;12783;48.824;8.662;2023-04-24T13:13:07;5.63;;;3.10;;
24650;SDS011;12783;48.824;8.662;2023-04-24T13:15:35;5.82;;;2.92;;
24650;SDS011;12783;48.824;8.662;2023-04-24T13:18:02;6.88;;;3.05;;
24650;SDS011;12783;48.824;8.662;2023-04-24T13:20:29;3.67;;;2.58;;
24650;SDS011;12783;48.824;8.662;2023-04-24T13:22:56;8.60;;;3.50;;
24650;SDS011;12783;48.824;8.662;2023-04-24T13:25:23;4.15;;;2.72;;
24650;SDS011;12783;48.824;8.662;2023-04-24T13:27:51;4.25;;;3.03;;
24650;SDS011;12783;48.824;8.662;2023-04-24T13:30:18;7.30;;;3.00;;
24650;SDS011;12783;48.824;8.662;2023-04-24T13:32:44;3.22;;;2.70;;
24650;SDS011;12783;48.824;8.662;2023-04-24T13:35:11;5.10;;;3.20;;
24650;SDS011;12783;48.824;8.662;2023-04-24T13:37:38;3.22;;;2.53;;
24650;SDS011;12783;48.824;8.662;2023-04-24T13:40:05;3.17;;;2.80;;
24650;SDS011;12783;48.824;8.662;2023-04-24T13:42:34;4.50;;;2.63;;
24650;SDS011;12783;48.824;8.662;2023-04-24T13:45:01;3.63;;;2.67;;
24650;SDS011;12783;48.824;8.662;2023-04-24T13:47:47;3.60;;;2.53;;
24650;SDS011;12783;48.824;8.662;2023-04-24T13:50:17;3.70;;;2.40;;
24650;SDS011;12783;48.824;8.662;2023-04-24T13:52:44;4.45;;;2.55;;
24650;SDS011;12783;48.824;8.662;2023-04-24T13:55:11;4.55;;;2.75;;
24650;SDS011;12783;48.824;8.662;2023-04-24T13:57:38;6.63;;;2.92;;
24650;SDS011;12783;48.824;8.662;2023-04-24T14:00:05;5.40;;;2.83;;
24650;SDS011;12783;48.824;8.662;2023-04-24T14:02:37;5.20;;;2.75;;
24650;SDS011;12783;48.824;8.662;2023-04-24T14:05:04;2.47;;;2.28;;
24650;SDS011;12783;48.824;8.662;2023-04-24T14:07:32;4.53;;;2.58;;
24650;SDS011;12783;48.824;8.662;2023-04-24T14:09:59;4.55;;;2.58;;
24650;SDS011;12783;48.824;8.662;2023-04-24T14:12:26;3.60;;;2.80;;
24650;SDS011;12783;48.824;8.662;2023-04-24T14:14:53;5.97;;;3.10;;
24650;SDS011;12783;48.824;8.662;2023-04-24T14:17:20;3.50;;;2.83;;
24650;SDS011;12783;48.824;8.662;2023-04-24T14:19:48;7.10;;;2.70;;
24650;SDS011;12783;48.824;8.662;2023-04-24T14:22:14;4.70;;;2.80;;
24650;SDS011;12783;48.824;8.662;2023-04-24T14:24:42;4.72;;;2.95;;
24650;SDS011;12783;48.824;8.662;2023-04-24T14:27:09;5.72;;;3.00;;
24650;SDS011;12783;48.824;8.662;2023-04-24T14:29:36;4.72;;;2.75;;
24650;SDS011;12783;48.824;8.662;2023-04-24T14:32:03;4.18;;;2.83;;
24650;SDS011;12783;48.824;8.662;2023-04-24T14:34:30;4.28;;;2.80;;
24650;SDS011;12783;48.824;8.662;2023-04-24T14:36:57;5.07;;;3.88;;
24650;SDS011;12783;48.824;8.662;2023-04-24T14:39:24;3.92;;;3.03;;
24650;SDS011;12783;48.824;8.662;2023-04-24T14:41:51;4.57;;;3.10;;
24650;SDS011;12783;48.824;8.662;2023-04-24T14:44:18;4.65;;;3.45;;
24650;SDS011;12783;48.824;8.662;2023-04-24T14:46:45;4.32;;;2.97;;
24650;SDS011;12783;48.824;8.662;2023-04-24T14:49:12;3.30;;;2.40;;
24650;SDS011;12783;48.824;8.662;2023-04-24T14:51:39;3.67;;;2.80;;
24650;SDS011;12783;48.824;8.662;2023-04-24T14:54:06;3.80;;;2.70;;
24650;SDS011;12783;48.824;8.662;2023-04-24T14:56:33;3.22;;;2.80;;
24650;SDS011;12783;48.824;8.662;2023-04-24T14:59:01;6.03;;;2.60;;
24650;SDS011;12783;48.824;8.662;2023-04-24T15:01:29;4.03;;;2.67;;
24650;SDS011;12783;48.824;8.662;2023-04-24T15:03:56;3.00;;;2.55;;
24650;SDS011;12783;48.824;8.662;2023-04-24T15:06:23;3.13;;;2.65;;
24650;SDS011;12783;48.824;8.662;2023-04-24T15:08:51;6.68;;;3.10;;
24650;SDS011;12783;48.824;8.662;2023-04-24T15:11:17;3.90;;;2.83;;
24650;SDS011;12783;48.824;8.662;2023-04-24T15:13:44;3.65;;;2.60;;
24650;SDS011;12783;48.824;8.662;2023-04-24T15:16:12;5.18;;;2.65;;